createdAt,value
2022-10-31T00:00:26.453Z,102200.81
2022-10-31T00:02:52.774Z,102204.34
2022-10-31T00:05:19.123Z,102196.72
2022-10-31T00:07:45.459Z,102193.56
2022-10-31T00:10:11.810Z,102198.88
2022-10-31T00:12:38.127Z,102198.81
2022-10-31T00:15:04.766Z,102199.91
2022-10-31T00:17:31.074Z,102199.59
2022-10-31T00:19:57.776Z,102202.75
2022-10-31T00:22:24.101Z,102204.06
2022-10-31T00:24:50.404Z,102206.94
2022-10-31T00:27:16.898Z,102201.34
2022-10-31T00:29:43.226Z,102210.31
2022-10-31T00:32:09.539Z,102206.38
2022-10-31T00:34:35.867Z,102213.03
2022-10-31T00:37:02.190Z,102213.63
2022-10-31T00:39:28.502Z,102219.03
2022-10-31T00:41:54.824Z,102214.78
2022-10-31T00:44:21.139Z,102214.78
2022-10-31T00:46:47.449Z,102215.28
2022-10-31T00:49:13.758Z,102213.69
2022-10-31T00:51:40.147Z,102214.00
2022-10-31T00:54:06.566Z,102219.56
2022-10-31T00:56:32.872Z,102223.31
2022-10-31T00:58:59.436Z,102216.97
2022-10-31T01:01:25.842Z,102214.84
2022-10-31T01:03:52.202Z,102223.31
2022-10-31T01:06:18.590Z,102215.03
2022-10-31T01:08:48.129Z,102218.00
2022-10-31T01:11:17.721Z,102211.09
2022-10-31T01:13:45.167Z,102208.13
2022-10-31T01:16:14.862Z,102211.16
2022-10-31T01:18:41.894Z,102205.09
2022-10-31T01:21:37.441Z,102208.25
2022-10-31T01:24:04.084Z,102201.88
2022-10-31T01:26:32.432Z,102197.34
2022-10-31T01:29:01.290Z,102186.72
2022-10-31T01:31:30.471Z,102185.94
2022-10-31T01:33:57.445Z,102187.22
2022-10-31T01:36:30.177Z,102192.03
2022-10-31T01:39:02.155Z,102186.19
2022-10-31T01:41:31.674Z,102184.63
2022-10-31T01:44:01.265Z,102191.00
2022-10-31T01:46:37.503Z,102186.28
2022-10-31T01:49:10.422Z,102188.75
2022-10-31T01:51:42.502Z,102187.53
2022-10-31T01:54:13.324Z,102184.91
2022-10-31T01:56:44.544Z,102180.72
2022-10-31T01:59:14.972Z,102178.59
2022-10-31T02:01:41.601Z,102180.53
2022-10-31T02:04:08.786Z,102179.34
2022-10-31T02:06:48.143Z,102179.97
2022-10-31T02:09:15.206Z,102181.16
2022-10-31T02:11:42.135Z,102183.06
2022-10-31T02:14:08.477Z,102179.63
2022-10-31T02:16:34.794Z,102182.84
2022-10-31T02:19:01.118Z,102179.19
2022-10-31T02:21:38.106Z,102181.13
2022-10-31T02:24:32.252Z,102176.22
2022-10-31T02:27:07.882Z,102189.78
2022-10-31T02:30:15.609Z,102185.81
2022-10-31T02:33:03.140Z,102186.66
2022-10-31T02:35:48.199Z,102181.09
2022-10-31T02:38:44.297Z,102185.59
2022-10-31T02:41:10.531Z,102187.19
2022-10-31T02:43:53.222Z,102189.03
2022-10-31T02:46:28.814Z,102190.91
2022-10-31T02:49:01.329Z,102189.88
2022-10-31T02:51:28.171Z,102198.16
2022-10-31T02:53:54.471Z,102199.84
2022-10-31T02:56:20.894Z,102188.97
2022-10-31T02:58:55.300Z,102195.59
2022-10-31T03:01:28.487Z,102197.44
2022-10-31T03:04:07.099Z,102194.56
2022-10-31T03:06:40.362Z,102188.72
2022-10-31T03:09:06.606Z,102193.50
2022-10-31T03:12:04.660Z,102196.69
2022-10-31T03:14:41.938Z,102196.22
2022-10-31T03:17:16.234Z,102202.34
2022-10-31T03:19:46.582Z,102194.19
2022-10-31T03:22:22.637Z,102191.25
2022-10-31T03:24:52.361Z,102192.31
2022-10-31T03:27:24.180Z,102196.31
2022-10-31T03:29:55.524Z,102198.41
2022-10-31T03:32:42.062Z,102201.06
2022-10-31T03:35:10.919Z,102200.03
2022-10-31T03:37:41.413Z,102207.41
2022-10-31T03:40:10.119Z,102194.16
2022-10-31T03:42:41.442Z,102192.06
2022-10-31T03:45:19.944Z,102197.91
2022-10-31T03:47:46.416Z,102203.78
2022-10-31T03:50:15.298Z,102194.50
2022-10-31T03:52:56.988Z,102203.00
2022-10-31T03:55:40.136Z,102197.41
2022-10-31T03:58:12.048Z,102195.84
2022-10-31T04:00:43.013Z,102199.56
2022-10-31T04:03:23.889Z,102193.72
2022-10-31T04:05:54.206Z,102194.56
2022-10-31T04:08:24.571Z,102194.56
2022-10-31T04:10:53.500Z,102193.75
2022-10-31T04:13:30.401Z,102201.72
2022-10-31T04:15:57.507Z,102207.00
2022-10-31T04:18:24.990Z,102205.69
2022-10-31T04:21:01.558Z,102211.50
2022-10-31T04:23:29.181Z,102199.84
2022-10-31T04:25:55.748Z,102200.13
2022-10-31T04:28:22.478Z,102201.19
2022-10-31T04:30:48.857Z,102204.88
2022-10-31T04:33:15.180Z,102201.69
2022-10-31T04:35:41.523Z,102200.63
2022-10-31T04:38:07.835Z,102198.00
2022-10-31T04:40:34.130Z,102198.00
2022-10-31T04:43:00.755Z,102197.75
2022-10-31T04:45:27.326Z,102195.63
2022-10-31T04:47:53.619Z,102186.88
2022-10-31T04:50:19.954Z,102189.53
2022-10-31T04:52:47.273Z,102191.13
2022-10-31T04:55:14.722Z,102183.16
2022-10-31T04:57:45.082Z,102184.50
2022-10-31T05:00:12.796Z,102187.94
2022-10-31T05:02:46.497Z,102184.75
2022-10-31T05:05:15.021Z,102192.44
2022-10-31T05:07:43.337Z,102182.09
2022-10-31T05:10:14.842Z,102184.22
2022-10-31T05:12:52.743Z,102184.50
2022-10-31T05:15:21.263Z,102179.47
2022-10-31T05:17:47.877Z,102174.69
2022-10-31T05:20:16.545Z,102184.75
2022-10-31T05:22:54.169Z,102184.75
2022-10-31T05:25:23.356Z,102179.19
2022-10-31T05:27:51.767Z,102174.16
2022-10-31T05:30:21.199Z,102182.63
2022-10-31T05:32:49.044Z,102175.47
2022-10-31T05:35:35.692Z,102171.78
2022-10-31T05:38:02.194Z,102173.63
2022-10-31T05:40:29.194Z,102169.13
2022-10-31T05:42:57.672Z,102180.75
2022-10-31T05:45:24.805Z,102170.97
2022-10-31T05:48:02.572Z,102174.66
2022-10-31T05:50:31.849Z,102171.47
2022-10-31T05:53:03.946Z,102168.06
2022-10-31T05:55:31.092Z,102168.06
2022-10-31T05:57:57.753Z,102162.75
2022-10-31T06:00:25.264Z,102160.63
2022-10-31T06:02:59.715Z,102160.13
2022-10-31T06:05:26.371Z,102165.94
2022-10-31T06:07:52.664Z,102162.50
2022-10-31T06:10:20.290Z,102163.28
2022-10-31T06:12:46.613Z,102159.84
2022-10-31T06:15:12.919Z,102154.06
2022-10-31T06:17:39.247Z,102163.56
2022-10-31T06:20:06.845Z,102159.34
2022-10-31T06:22:33.486Z,102155.13
2022-10-31T06:25:00.033Z,102153.50
2022-10-31T06:27:26.563Z,102160.41
2022-10-31T06:29:52.958Z,102154.56
2022-10-31T06:32:19.811Z,102155.09
2022-10-31T06:34:49.064Z,102160.66
2022-10-31T06:37:15.969Z,102157.75
2022-10-31T06:39:42.291Z,102156.16
2022-10-31T06:42:08.620Z,102172.03
2022-10-31T06:44:34.922Z,102168.09
2022-10-31T06:47:01.261Z,102166.50
2022-10-31T06:49:27.614Z,102164.66
2022-10-31T06:51:54.002Z,102171.25
2022-10-31T06:54:20.349Z,102176.81
2022-10-31T06:56:48.316Z,102177.88
2022-10-31T06:59:15.620Z,102185.28
2022-10-31T07:01:42.445Z,102176.28
2022-10-31T07:04:12.293Z,102178.41
2022-10-31T07:06:38.832Z,102175.50
2022-10-31T07:09:05.660Z,102178.41
2022-10-31T07:11:32.242Z,102178.41
2022-10-31T07:13:58.562Z,102177.38
2022-10-31T07:16:25.087Z,102178.94
2022-10-31T07:18:51.558Z,102173.38
2022-10-31T07:21:17.913Z,102169.94
2022-10-31T07:23:44.218Z,102175.75
2022-10-31T07:26:11.746Z,102172.56
2022-10-31T07:28:38.113Z,102163.81
2022-10-31T07:31:05.469Z,102173.59
2022-10-31T07:33:32.970Z,102175.16
2022-10-31T07:36:01.457Z,102180.72
2022-10-31T07:38:29.151Z,102188.91
2022-10-31T07:40:56.575Z,102183.63
2022-10-31T07:43:24.178Z,102181.22
2022-10-31T07:45:53.508Z,102188.06
2022-10-31T07:48:21.711Z,102188.31
2022-10-31T07:50:49.079Z,102188.28
2022-10-31T07:53:16.759Z,102192.50
2022-10-31T07:55:44.996Z,102195.91
2022-10-31T07:58:15.563Z,102192.41
2022-10-31T08:00:45.301Z,102191.88
2022-10-31T08:03:15.051Z,102193.44
2022-10-31T08:05:42.928Z,102193.16
2022-10-31T08:08:11.079Z,102196.88
2022-10-31T08:10:38.941Z,102205.03
2022-10-31T08:13:14.772Z,102197.00
2022-10-31T08:15:43.315Z,102200.03
2022-10-31T08:18:15.158Z,102206.06
2022-10-31T08:20:43.385Z,102203.38
2022-10-31T08:23:12.151Z,102199.84
2022-10-31T08:25:39.855Z,102194.91
2022-10-31T08:28:08.207Z,102193.66
2022-10-31T08:30:38.528Z,102194.00
2022-10-31T08:33:12.402Z,102189.06
2022-10-31T08:35:39.955Z,102187.56
2022-10-31T08:38:08.919Z,102185.56
2022-10-31T08:40:39.181Z,102184.44
2022-10-31T08:43:10.389Z,102189.56
2022-10-31T08:45:37.588Z,102182.94
2022-10-31T08:48:07.610Z,102184.31
2022-10-31T08:50:36.728Z,102180.56
2022-10-31T08:53:12.979Z,102174.88
2022-10-31T08:55:41.127Z,102165.91
2022-10-31T08:58:13.908Z,102167.53
2022-10-31T09:00:41.434Z,102159.47
2022-10-31T09:03:13.747Z,102167.19
2022-10-31T09:05:41.404Z,102167.88
2022-10-31T09:08:14.775Z,102165.25
2022-10-31T09:10:43.926Z,102156.81
2022-10-31T09:13:14.048Z,102149.13
2022-10-31T09:15:42.695Z,102141.22
2022-10-31T09:18:10.129Z,102138.94
2022-10-31T09:20:38.293Z,102134.38
2022-10-31T09:23:07.622Z,102141.50
2022-10-31T09:25:36.279Z,102134.28
2022-10-31T09:28:04.885Z,102123.41
2022-10-31T09:30:33.916Z,102112.72
2022-10-31T09:33:03.039Z,102117.47
2022-10-31T09:35:30.337Z,102111.25
2022-10-31T09:37:59.126Z,102106.28
2022-10-31T09:40:32.770Z,102112.78
2022-10-31T09:43:32.763Z,102119.28
2022-10-31T09:46:30.890Z,102109.16
2022-10-31T09:49:11.300Z,102115.25
2022-10-31T09:51:52.961Z,102117.34
2022-10-31T09:54:26.922Z,102116.66
2022-10-31T09:56:53.711Z,102107.59
2022-10-31T09:59:34.299Z,102105.16
2022-10-31T10:02:47.044Z,102098.31
2022-10-31T10:05:20.690Z,102098.09
2022-10-31T10:08:12.955Z,102095.94
2022-10-31T10:10:55.552Z,102086.06
2022-10-31T10:13:52.300Z,102086.56
2022-10-31T10:16:21.626Z,102086.28
2022-10-31T10:18:59.857Z,102081.56
2022-10-31T10:21:40.531Z,102082.03
2022-10-31T10:24:15.916Z,102092.72
2022-10-31T10:26:51.450Z,102092.72
2022-10-31T10:29:31.960Z,102083.59
2022-10-31T10:32:02.348Z,102072.09
2022-10-31T10:34:38.143Z,102063.75
2022-10-31T10:37:12.838Z,102076.84
2022-10-31T10:39:44.287Z,102068.97
2022-10-31T10:42:35.458Z,102061.09
2022-10-31T10:45:34.123Z,102056.69
2022-10-31T10:48:10.375Z,102053.25
2022-10-31T10:50:45.404Z,102037.50
2022-10-31T10:53:32.594Z,102012.63
2022-10-31T10:56:17.692Z,102011.81
2022-10-31T10:58:44.264Z,102020.13
2022-10-31T11:03:43.065Z,102012.06
2022-10-31T11:06:23.060Z,101995.81
2022-10-31T11:08:50.667Z,101987.47
2022-10-31T11:11:28.855Z,101975.47
2022-10-31T11:14:13.242Z,101957.22
2022-10-31T11:16:43.536Z,101967.59
2022-10-31T11:19:12.589Z,101965.69
2022-10-31T11:21:39.111Z,101972.00
2022-10-31T11:24:11.543Z,101975.88
2022-10-31T11:26:40.241Z,101975.06
2022-10-31T11:29:14.785Z,101982.47
2022-10-31T11:31:41.822Z,101978.66
2022-10-31T11:34:16.979Z,101963.22
2022-10-31T11:36:45.245Z,101964.00
2022-10-31T11:39:21.475Z,101949.50
2022-10-31T11:41:49.186Z,101939.56
2022-10-31T11:44:20.589Z,101948.06
2022-10-31T11:46:52.693Z,101942.84
2022-10-31T11:49:31.850Z,101947.09
2022-10-31T11:52:02.701Z,101946.78
2022-10-31T11:54:31.935Z,101933.84
2022-10-31T11:56:58.288Z,101920.44
2022-10-31T11:59:32.717Z,101898.66
2022-10-31T12:02:01.296Z,101897.22
2022-10-31T12:04:51.766Z,101890.88
2022-10-31T12:07:18.086Z,101883.63
2022-10-31T12:09:44.437Z,101889.66
2022-10-31T12:12:35.417Z,101876.09
2022-10-31T12:15:10.885Z,101888.91
2022-10-31T12:18:01.512Z,101876.16
2022-10-31T12:20:49.732Z,101862.75
2022-10-31T12:23:34.965Z,101861.78
2022-10-31T12:26:11.617Z,101859.69
2022-10-31T12:28:49.885Z,101846.56
2022-10-31T12:31:30.131Z,101833.09
2022-10-31T12:34:02.455Z,101839.19
2022-10-31T12:36:43.875Z,101822.53
2022-10-31T12:39:19.629Z,101809.72
2022-10-31T12:42:19.353Z,101816.28
2022-10-31T12:45:21.199Z,101817.66
2022-10-31T12:48:05.591Z,101791.41
2022-10-31T12:51:21.347Z,101786.16
2022-10-31T12:54:34.790Z,101786.28
2022-10-31T12:57:19.127Z,101771.41
2022-10-31T12:59:53.925Z,101770.75
2022-10-31T13:02:43.571Z,101780.81
2022-10-31T13:05:34.019Z,101773.53
2022-10-31T13:08:15.324Z,101761.59
2022-10-31T13:13:45.514Z,101765.84
2022-10-31T13:16:21.150Z,101745.91
2022-10-31T13:18:52.906Z,101732.06
2022-10-31T13:21:27.161Z,101720.88
2022-10-31T13:23:55.678Z,101716.97
2022-10-31T13:26:33.973Z,101711.16
2022-10-31T13:29:10.047Z,101709.91
2022-10-31T13:31:41.081Z,101704.53
2022-10-31T13:34:19.201Z,101705.00
2022-10-31T13:37:16.659Z,101696.72
2022-10-31T13:39:49.412Z,101698.09
2022-10-31T13:42:24.548Z,101688.00
2022-10-31T13:44:50.897Z,101672.91
2022-10-31T13:47:26.887Z,101675.81
2022-10-31T13:50:19.521Z,101672.09
2022-10-31T13:52:46.348Z,101672.19
2022-10-31T13:55:40.757Z,101656.84
2022-10-31T13:58:39.700Z,101654.63
2022-10-31T14:01:11.877Z,101649.28
2022-10-31T14:04:06.125Z,101642.34
2022-10-31T14:06:38.504Z,101646.13
2022-10-31T14:09:05.626Z,101636.06
2022-10-31T14:11:36.106Z,101640.97
2022-10-31T14:14:03.990Z,101639.00
2022-10-31T14:16:32.941Z,101635.06
2022-10-31T14:19:06.659Z,101640.34
2022-10-31T14:21:41.426Z,101634.09
2022-10-31T14:24:26.123Z,101618.66
2022-10-31T14:26:58.102Z,101612.41
2022-10-31T14:29:32.573Z,101606.56
2022-10-31T14:32:20.381Z,101602.69
2022-10-31T14:34:58.550Z,101586.47
2022-10-31T14:37:50.409Z,101584.91
2022-10-31T14:40:26.961Z,101588.59
2022-10-31T14:43:15.230Z,101584.34
2022-10-31T14:45:49.167Z,101577.78
2022-10-31T14:48:37.762Z,101562.31
2022-10-31T14:51:13.177Z,101559.22
2022-10-31T14:53:56.064Z,101566.38
2022-10-31T14:56:27.224Z,101559.00
2022-10-31T14:58:56.295Z,101565.03
2022-10-31T15:01:54.520Z,101563.81
2022-10-31T15:04:27.293Z,101562.91
2022-10-31T15:07:01.359Z,101565.13
2022-10-31T15:09:30.908Z,101565.06
2022-10-31T15:12:00.188Z,101560.34
2022-10-31T15:14:29.446Z,101557.22
2022-10-31T15:17:01.917Z,101563.25
2022-10-31T15:19:31.173Z,101562.03
2022-10-31T15:21:58.692Z,101556.22
2022-10-31T15:24:36.013Z,101552.31
2022-10-31T15:27:05.139Z,101547.59
2022-10-31T15:29:32.386Z,101537.53
2022-10-31T15:32:01.728Z,101544.34
2022-10-31T15:34:39.029Z,101533.50
2022-10-31T15:37:10.182Z,101523.44
2022-10-31T15:39:36.490Z,101512.63
2022-10-31T15:42:03.023Z,101517.53
2022-10-31T15:44:36.194Z,101514.75
2022-10-31T15:47:07.397Z,101500.56
2022-10-31T15:49:51.040Z,101491.75
2022-10-31T15:52:35.702Z,101479.44
2022-10-31T15:55:06.600Z,101479.44
2022-10-31T15:57:33.869Z,101461.81
2022-10-31T16:00:00.216Z,101475.53
2022-10-31T16:02:28.322Z,101463.63
2022-10-31T16:05:01.959Z,101463.84
2022-10-31T16:07:30.253Z,101467.50
2022-10-31T16:09:59.697Z,101463.94
2022-10-31T16:12:33.282Z,101462.72
2022-10-31T16:14:59.620Z,101464.84
2022-10-31T16:17:28.256Z,101459.34
2022-10-31T16:19:59.678Z,101466.94
2022-10-31T16:22:29.776Z,101466.81
2022-10-31T16:25:05.164Z,101463.91
2022-10-31T16:27:34.471Z,101461.78
2022-10-31T16:30:04.513Z,101453.06
2022-10-31T16:32:54.444Z,101454.41
2022-10-31T16:35:32.441Z,101449.91
2022-10-31T16:37:58.850Z,101449.22
2022-10-31T16:40:25.792Z,101448.97
2022-10-31T16:42:52.944Z,101440.66
2022-10-31T16:45:25.861Z,101440.88
2022-10-31T16:47:53.017Z,101429.91
2022-10-31T16:50:25.905Z,101428.22
2022-10-31T16:53:12.449Z,101428.91
2022-10-31T16:55:47.675Z,101427.53
2022-10-31T16:58:35.314Z,101421.63
2022-10-31T17:01:06.657Z,101419.13
2022-10-31T17:03:33.711Z,101421.34
2022-10-31T17:06:00.062Z,101411.31
2022-10-31T17:08:26.404Z,101409.75
2022-10-31T17:10:55.897Z,101397.47
2022-10-31T17:13:25.947Z,101397.03
2022-10-31T17:15:56.458Z,101397.34
2022-10-31T17:18:27.398Z,101396.56
2022-10-31T17:21:03.225Z,101404.13
2022-10-31T17:23:30.283Z,101403.69
2022-10-31T17:25:57.216Z,101390.94
2022-10-31T17:28:23.588Z,101380.94
2022-10-31T17:30:50.115Z,101377.69
2022-10-31T17:38:58.049Z,101376.38
2022-10-31T17:49:42.841Z,101359.88
2022-10-31T17:52:15.201Z,101358.16
2022-10-31T17:54:45.822Z,101355.22
2022-10-31T17:57:13.691Z,101349.88
2022-10-31T17:59:40.101Z,101342.84
2022-10-31T18:02:08.787Z,101336.25
2022-10-31T18:04:35.693Z,101333.44
2022-10-31T18:07:02.483Z,101323.72
2022-10-31T18:09:28.802Z,101311.03
2022-10-31T18:11:55.222Z,101300.19
2022-10-31T18:14:21.544Z,101297.38
2022-10-31T18:16:47.909Z,101281.06
2022-10-31T18:19:16.114Z,101280.91
2022-10-31T18:21:44.381Z,101276.25
2022-10-31T18:24:10.721Z,101286.09
2022-10-31T18:26:37.189Z,101299.66
2022-10-31T18:29:04.001Z,101306.59
2022-10-31T18:31:30.350Z,101308.34
2022-10-31T18:33:57.458Z,101304.44
2022-10-31T18:36:24.385Z,101309.97
2022-10-31T18:38:50.740Z,101302.47
2022-10-31T18:41:17.166Z,101302.31
2022-10-31T18:43:43.482Z,101303.75
2022-10-31T18:46:13.304Z,101295.25
2022-10-31T18:48:43.989Z,101290.06
2022-10-31T18:51:14.106Z,101288.66
2022-10-31T18:53:40.660Z,101282.22
2022-10-31T18:56:08.693Z,101275.94
2022-10-31T18:58:35.470Z,101266.47
2022-10-31T19:01:09.522Z,101267.59
2022-10-31T19:03:36.906Z,101269.94
2022-10-31T19:06:03.799Z,101274.03
2022-10-31T19:08:31.066Z,101273.56
2022-10-31T19:11:05.206Z,101272.25
2022-10-31T19:13:32.935Z,101270.53
2022-10-31T19:16:10.781Z,101270.84
2022-10-31T19:18:38.085Z,101271.63
2022-10-31T19:21:08.382Z,101271.63
2022-10-31T19:23:35.289Z,101263.28
2022-10-31T19:26:02.771Z,101261.41
2022-10-31T19:28:31.143Z,101254.97
2022-10-31T19:30:58.073Z,101259.66
2022-10-31T19:33:29.468Z,101253.69
2022-10-31T19:36:09.513Z,101252.59
2022-10-31T19:38:37.382Z,101247.69
2022-10-31T19:41:07.343Z,101248.63
2022-10-31T19:43:34.201Z,101245.63
2022-10-31T19:46:02.566Z,101235.72
2022-10-31T19:48:29.138Z,101234.28
2022-10-31T19:51:04.629Z,101240.53
2022-10-31T19:53:31.768Z,101235.97
2022-10-31T19:55:58.643Z,101238.34
2022-10-31T19:58:25.566Z,101238.34
2022-10-31T20:00:52.067Z,101228.44
2022-10-31T20:03:21.591Z,101237.56
2022-10-31T20:05:50.150Z,101222.94
2022-10-31T20:08:19.336Z,101232.41
2022-10-31T20:11:03.675Z,101219.34
2022-10-31T20:13:32.129Z,101223.91
2022-10-31T20:16:01.034Z,101225.50
2022-10-31T20:18:27.794Z,101215.91
2022-10-31T20:20:54.318Z,101214.81
2022-10-31T20:23:20.655Z,101206.81
2022-10-31T20:25:48.840Z,101206.81
2022-10-31T20:28:15.584Z,101205.22
2022-10-31T20:30:42.726Z,101207.00
2022-10-31T20:33:09.045Z,101199.00
2022-10-31T20:35:40.106Z,101196.34
2022-10-31T20:38:08.010Z,101192.06
2022-10-31T20:40:35.273Z,101192.56
2022-10-31T20:43:02.899Z,101191.78
2022-10-31T20:45:30.454Z,101187.84
2022-10-31T20:47:57.863Z,101187.41
2022-10-31T20:50:25.602Z,101184.28
2022-10-31T20:52:52.344Z,101178.16
2022-10-31T20:55:18.786Z,101177.50
2022-10-31T20:57:45.143Z,101180.50
2022-10-31T21:00:15.187Z,101178.16
2022-10-31T21:02:42.934Z,101176.59
2022-10-31T21:05:12.833Z,101170.03
2022-10-31T21:07:39.713Z,101171.13
2022-10-31T21:10:15.982Z,101168.00
2022-10-31T21:12:44.177Z,101170.22
2022-10-31T21:15:12.325Z,101168.97
2022-10-31T21:17:38.613Z,101160.00
2022-10-31T21:20:06.853Z,101151.69
2022-10-31T21:22:33.853Z,101153.63
2022-10-31T21:25:00.417Z,101149.50
2022-10-31T21:27:26.898Z,101143.19
2022-10-31T21:29:53.369Z,101141.88
2022-10-31T21:32:19.722Z,101139.00
2022-10-31T21:34:48.089Z,101133.22
2022-10-31T21:37:14.386Z,101129.44
2022-10-31T21:39:40.684Z,101116.00
2022-10-31T21:42:07.000Z,101114.09
2022-10-31T21:44:33.597Z,101112.09
2022-10-31T21:46:59.915Z,101114.31
2022-10-31T21:49:26.216Z,101106.28
2022-10-31T21:51:52.514Z,101101.41
2022-10-31T21:54:27.910Z,101105.84
2022-10-31T21:56:55.612Z,101108.19
2022-10-31T21:59:22.108Z,101093.75
2022-10-31T22:01:48.992Z,101097.84
2022-10-31T22:04:15.696Z,101090.50
2022-10-31T22:06:42.106Z,101090.50
2022-10-31T22:09:11.606Z,101088.72
2022-10-31T22:11:39.804Z,101082.25
2022-10-31T22:14:06.162Z,101071.56
2022-10-31T22:16:35.984Z,101080.69
2022-10-31T22:19:05.628Z,101076.91
2022-10-31T22:21:44.150Z,101076.28
2022-10-31T22:24:11.168Z,101073.03
2022-10-31T22:26:38.533Z,101069.16
2022-10-31T22:29:07.523Z,101061.56
2022-10-31T22:31:37.106Z,101070.69
2022-10-31T22:34:03.396Z,101071.69
2022-10-31T22:36:32.026Z,101061.91
2022-10-31T22:38:59.027Z,101064.13
2022-10-31T22:41:28.501Z,101069.94
2022-10-31T22:43:55.994Z,101060.06
2022-10-31T22:46:24.958Z,101060.97
2022-10-31T22:48:55.771Z,101057.63
2022-10-31T22:51:24.800Z,101054.75
2022-10-31T22:53:51.658Z,101043.28
2022-10-31T22:56:20.531Z,101041.81
2022-10-31T22:58:48.222Z,101037.38
2022-10-31T23:01:17.892Z,101034.84
2022-10-31T23:03:45.130Z,101039.19
2022-10-31T23:06:14.341Z,101035.50
2022-10-31T23:08:41.342Z,101035.63
2022-10-31T23:11:19.882Z,101033.38
2022-10-31T23:14:06.950Z,101029.63
2022-10-31T23:16:34.261Z,101018.91
2022-10-31T23:19:01.470Z,101017.34
2022-10-31T23:21:46.439Z,101016.13
2022-10-31T23:24:12.779Z,101012.69
2022-10-31T23:26:58.534Z,101005.78
2022-10-31T23:29:24.973Z,101002.66
2022-10-31T23:31:54.527Z,100999.97
2022-10-31T23:34:22.407Z,100993.53
2022-10-31T23:36:49.180Z,101005.00
2022-10-31T23:39:15.502Z,100998.06
2022-10-31T23:41:42.037Z,101005.00
2022-10-31T23:44:08.373Z,101006.44
2022-10-31T23:46:35.189Z,100996.53
2022-10-31T23:49:01.600Z,100986.63
2022-10-31T23:51:27.893Z,100982.84
2022-10-31T23:53:54.187Z,100984.72
2022-10-31T23:56:20.573Z,100973.25
2022-10-31T23:58:46.910Z,100972.16
